« Back
NWS Peachtree City, Ga » Text Product » ATL Terminal Aerodrome Forecast


Printer-friendly Version
Current Version              Previous Versions:   1  2  3  4  5  6  7  8  9  

Terminal Aerodrome Forecast

274
FTUS42 KFFC 152100 AAB
TAFATL
TAF AMD
KATL 152159Z 1522/1624 14004KT P6SM FEW015 BKN020
      TEMPO 1523/1603 4SM -TSRA BKN025CB
     FM160600 25005KT 5SM BR VCSH BKN025
     FM161200 32007KT 6SM BR BKN015
     FM161500 33008KT P6SM SCT025 BKN040
     FM161800 33011KT P6SM SCT050 BKN100=

USA.gov is the U.S. government's official web portal to all federal, state and local government web resources and services.